sensor_id;sensor_type;location;lat;lon;timestamp;P1;durP1;ratioP1;P2;durP2;ratioP2
41261;SDS011;29629;52.532;13.352;2022-09-04T00:01:54;28.30;;;26.08;;
41261;SDS011;29629;52.532;13.352;2022-09-04T00:04:29;33.42;;;27.58;;
41261;SDS011;29629;52.532;13.352;2022-09-04T00:07:07;22.70;;;20.33;;
41261;SDS011;29629;52.532;13.352;2022-09-04T00:09:44;26.90;;;24.52;;
41261;SDS011;29629;52.532;13.352;2022-09-04T00:12:20;25.58;;;23.20;;
41261;SDS011;29629;52.532;13.352;2022-09-04T00:14:52;26.70;;;24.40;;
41261;SDS011;29629;52.532;13.352;2022-09-04T00:17:24;22.48;;;20.42;;
41261;SDS011;29629;52.532;13.352;2022-09-04T00:19:57;23.25;;;21.38;;
41261;SDS011;29629;52.532;13.352;2022-09-04T00:22:28;21.90;;;20.05;;
41261;SDS011;29629;52.532;13.352;2022-09-04T00:25:03;23.35;;;21.38;;
41261;SDS011;29629;52.532;13.352;2022-09-04T00:30:08;25.17;;;22.98;;
41261;SDS011;29629;52.532;13.352;2022-09-04T00:32:39;21.98;;;19.80;;
41261;SDS011;29629;52.532;13.352;2022-09-04T00:35:13;25.85;;;20.08;;
41261;SDS011;29629;52.532;13.352;2022-09-04T00:37:44;23.25;;;20.63;;
41261;SDS011;29629;52.532;13.352;2022-09-04T00:40:18;22.73;;;20.42;;
41261;SDS011;29629;52.532;13.352;2022-09-04T00:45:57;24.70;;;22.17;;
41261;SDS011;29629;52.532;13.352;2022-09-04T00:48:58;25.92;;;23.75;;
41261;SDS011;29629;52.532;13.352;2022-09-04T00:51:55;32.83;;;30.20;;
41261;SDS011;29629;52.532;13.352;2022-09-04T00:54:37;37.22;;;30.45;;
41261;SDS011;29629;52.532;13.352;2022-09-04T00:57:42;30.33;;;27.48;;
41261;SDS011;29629;52.532;13.352;2022-09-04T01:00:20;27.10;;;25.67;;
41261;SDS011;29629;52.532;13.352;2022-09-04T01:02:51;25.48;;;23.08;;
41261;SDS011;29629;52.532;13.352;2022-09-04T01:05:47;26.33;;;24.20;;
41261;SDS011;29629;52.532;13.352;2022-09-04T01:08:27;25.48;;;23.33;;
41261;SDS011;29629;52.532;13.352;2022-09-04T01:11:07;21.90;;;20.33;;
41261;SDS011;29629;52.532;13.352;2022-09-04T01:13:41;26.17;;;23.83;;
41261;SDS011;29629;52.532;13.352;2022-09-04T01:16:13;21.45;;;20.25;;
41261;SDS011;29629;52.532;13.352;2022-09-04T01:18:48;25.38;;;22.77;;
41261;SDS011;29629;52.532;13.352;2022-09-04T01:21:28;24.27;;;22.25;;
41261;SDS011;29629;52.532;13.352;2022-09-04T01:24:32;32.80;;;25.55;;
41261;SDS011;29629;52.532;13.352;2022-09-04T01:27:15;26.25;;;24.10;;
41261;SDS011;29629;52.532;13.352;2022-09-04T01:29:52;22.77;;;21.58;;
41261;SDS011;29629;52.532;13.352;2022-09-04T01:32:30;25.27;;;22.88;;
41261;SDS011;29629;52.532;13.352;2022-09-04T01:35:16;27.92;;;25.30;;
41261;SDS011;29629;52.532;13.352;2022-09-04T01:37:56;29.60;;;27.17;;
41261;SDS011;29629;52.532;13.352;2022-09-04T01:40:33;30.20;;;27.70;;
41261;SDS011;29629;52.532;13.352;2022-09-04T01:43:07;31.55;;;29.15;;
41261;SDS011;29629;52.532;13.352;2022-09-04T01:45:41;26.73;;;24.13;;
41261;SDS011;29629;52.532;13.352;2022-09-04T01:48:30;20.92;;;17.20;;
41261;SDS011;29629;52.532;13.352;2022-09-04T01:51:05;23.67;;;21.58;;
41261;SDS011;29629;52.532;13.352;2022-09-04T01:53:42;24.10;;;21.98;;
41261;SDS011;29629;52.532;13.352;2022-09-04T01:56:17;24.33;;;22.25;;
41261;SDS011;29629;52.532;13.352;2022-09-04T01:58:52;26.17;;;23.52;;
41261;SDS011;29629;52.532;13.352;2022-09-04T02:01:23;25.50;;;23.15;;
41261;SDS011;29629;52.532;13.352;2022-09-04T02:04:02;21.80;;;20.50;;
41261;SDS011;29629;52.532;13.352;2022-09-04T02:06:38;28.40;;;26.05;;
41261;SDS011;29629;52.532;13.352;2022-09-04T02:09:14;26.67;;;25.35;;
41261;SDS011;29629;52.532;13.352;2022-09-04T02:11:53;26.60;;;24.25;;
41261;SDS011;29629;52.532;13.352;2022-09-04T02:14:30;32.85;;;26.15;;
41261;SDS011;29629;52.532;13.352;2022-09-04T02:17:06;26.33;;;23.73;;
41261;SDS011;29629;52.532;13.352;2022-09-04T02:19:40;24.40;;;22.42;;
41261;SDS011;29629;52.532;13.352;2022-09-04T02:22:23;20.90;;;18.87;;
41261;SDS011;29629;52.532;13.352;2022-09-04T02:24:58;30.83;;;25.30;;
41261;SDS011;29629;52.532;13.352;2022-09-04T02:27:31;26.27;;;23.85;;
41261;SDS011;29629;52.532;13.352;2022-09-04T02:30:09;25.58;;;23.33;;
41261;SDS011;29629;52.532;13.352;2022-09-04T02:32:38;29.23;;;26.40;;
41261;SDS011;29629;52.532;13.352;2022-09-04T02:35:14;23.92;;;22.83;;
41261;SDS011;29629;52.532;13.352;2022-09-04T02:37:49;26.17;;;23.88;;
41261;SDS011;29629;52.532;13.352;2022-09-04T02:40:23;25.83;;;23.88;;
41261;SDS011;29629;52.532;13.352;2022-09-04T02:42:58;28.17;;;25.65;;
41261;SDS011;29629;52.532;13.352;2022-09-04T02:45:39;25.75;;;23.75;;
41261;SDS011;29629;52.532;13.352;2022-09-04T02:48:11;23.42;;;21.52;;
41261;SDS011;29629;52.532;13.352;2022-09-04T02:50:47;26.98;;;24.75;;
41261;SDS011;29629;52.532;13.352;2022-09-04T02:53:27;26.23;;;23.95;;
41261;SDS011;29629;52.532;13.352;2022-09-04T02:55:58;26.30;;;24.05;;
41261;SDS011;29629;52.532;13.352;2022-09-04T02:58:40;22.13;;;20.10;;
41261;SDS011;29629;52.532;13.352;2022-09-04T03:01:17;26.23;;;20.48;;
41261;SDS011;29629;52.532;13.352;2022-09-04T03:03:50;19.40;;;17.38;;
41261;SDS011;29629;52.532;13.352;2022-09-04T03:06:29;22.45;;;18.80;;
41261;SDS011;29629;52.532;13.352;2022-09-04T03:09:07;23.67;;;17.77;;
41261;SDS011;29629;52.532;13.352;2022-09-04T03:11:39;18.35;;;16.52;;
41261;SDS011;29629;52.532;13.352;2022-09-04T03:16:53;17.83;;;15.75;;
41261;SDS011;29629;52.532;13.352;2022-09-04T03:19:27;23.70;;;18.02;;
41261;SDS011;29629;52.532;13.352;2022-09-04T03:24:32;43.08;;;22.70;;
41261;SDS011;29629;52.532;13.352;2022-09-04T03:27:04;23.00;;;17.33;;
41261;SDS011;29629;52.532;13.352;2022-09-04T03:29:35;16.73;;;15.20;;
41261;SDS011;29629;52.532;13.352;2022-09-04T03:32:12;21.98;;;18.48;;
41261;SDS011;29629;52.532;13.352;2022-09-04T03:37:36;19.70;;;17.70;;
41261;SDS011;29629;52.532;13.352;2022-09-04T03:40:17;17.95;;;16.17;;
41261;SDS011;29629;52.532;13.352;2022-09-04T03:43:00;16.85;;;15.32;;
41261;SDS011;29629;52.532;13.352;2022-09-04T03:45:45;18.27;;;16.55;;
41261;SDS011;29629;52.532;13.352;2022-09-04T03:48:26;16.33;;;14.75;;
41261;SDS011;29629;52.532;13.352;2022-09-04T03:51:08;17.25;;;15.10;;
41261;SDS011;29629;52.532;13.352;2022-09-04T03:53:43;16.48;;;14.00;;
41261;SDS011;29629;52.532;13.352;2022-09-04T03:56:30;17.48;;;15.73;;
41261;SDS011;29629;52.532;13.352;2022-09-04T03:59:24;16.92;;;15.18;;
41261;SDS011;29629;52.532;13.352;2022-09-04T04:02:02;16.95;;;15.23;;
41261;SDS011;29629;52.532;13.352;2022-09-04T04:07:21;15.90;;;14.55;;
41261;SDS011;29629;52.532;13.352;2022-09-04T04:09:58;15.23;;;13.75;;
41261;SDS011;29629;52.532;13.352;2022-09-04T04:12:44;16.50;;;14.82;;
41261;SDS011;29629;52.532;13.352;2022-09-04T04:15:31;16.00;;;14.15;;
41261;SDS011;29629;52.532;13.352;2022-09-04T04:18:16;18.42;;;15.23;;
41261;SDS011;29629;52.532;13.352;2022-09-04T04:20:58;16.15;;;14.38;;
41261;SDS011;29629;52.532;13.352;2022-09-04T04:23:45;15.13;;;13.57;;
41261;SDS011;29629;52.532;13.352;2022-09-04T04:26:27;22.50;;;15.68;;
41261;SDS011;29629;52.532;13.352;2022-09-04T04:32:11;12.90;;;11.77;;
41261;SDS011;29629;52.532;13.352;2022-09-04T04:34:57;17.70;;;12.95;;
41261;SDS011;29629;52.532;13.352;2022-09-04T04:37:43;12.82;;;11.65;;
41261;SDS011;29629;52.532;13.352;2022-09-04T04:40:23;13.45;;;12.20;;
41261;SDS011;29629;52.532;13.352;2022-09-04T04:43:07;18.58;;;13.57;;
41261;SDS011;29629;52.532;13.352;2022-09-04T04:45:43;23.42;;;14.43;;
41261;SDS011;29629;52.532;13.352;2022-09-04T04:48:19;15.55;;;12.52;;
41261;SDS011;29629;52.532;13.352;2022-09-04T04:51:05;18.85;;;13.05;;
41261;SDS011;29629;52.532;13.352;2022-09-04T04:53:44;21.02;;;13.32;;
41261;SDS011;29629;52.532;13.352;2022-09-04T04:56:17;16.92;;;12.52;;
41261;SDS011;29629;52.532;13.352;2022-09-04T04:58:55;14.32;;;12.52;;
41261;SDS011;29629;52.532;13.352;2022-09-04T05:01:39;14.60;;;13.07;;
41261;SDS011;29629;52.532;13.352;2022-09-04T05:04:12;13.07;;;11.68;;
41261;SDS011;29629;52.532;13.352;2022-09-04T05:06:48;22.20;;;13.55;;
41261;SDS011;29629;52.532;13.352;2022-09-04T05:09:23;18.20;;;12.65;;
41261;SDS011;29629;52.532;13.352;2022-09-04T05:12:01;34.42;;;15.82;;
41261;SDS011;29629;52.532;13.352;2022-09-04T05:14:37;43.53;;;18.27;;
41261;SDS011;29629;52.532;13.352;2022-09-04T05:17:18;15.45;;;13.88;;
41261;SDS011;29629;52.532;13.352;2022-09-04T05:19:53;14.23;;;12.82;;
41261;SDS011;29629;52.532;13.352;2022-09-04T05:22:39;21.85;;;15.30;;
41261;SDS011;29629;52.532;13.352;2022-09-04T05:25:14;24.35;;;16.85;;
41261;SDS011;29629;52.532;13.352;2022-09-04T05:27:50;20.02;;;15.32;;
41261;SDS011;29629;52.532;13.352;2022-09-04T05:32:59;18.92;;;16.88;;
41261;SDS011;29629;52.532;13.352;2022-09-04T05:35:35;18.45;;;16.73;;
41261;SDS011;29629;52.532;13.352;2022-09-04T05:38:10;18.08;;;16.08;;
41261;SDS011;29629;52.532;13.352;2022-09-04T05:40:59;20.50;;;17.50;;
41261;SDS011;29629;52.532;13.352;2022-09-04T05:43:32;20.48;;;17.95;;
41261;SDS011;29629;52.532;13.352;2022-09-04T05:46:15;21.98;;;17.55;;
41261;SDS011;29629;52.532;13.352;2022-09-04T05:48:50;22.20;;;19.77;;
41261;SDS011;29629;52.532;13.352;2022-09-04T05:51:29;21.90;;;18.60;;
41261;SDS011;29629;52.532;13.352;2022-09-04T05:54:22;23.42;;;18.73;;
41261;SDS011;29629;52.532;13.352;2022-09-04T05:57:07;24.35;;;18.88;;
41261;SDS011;29629;52.532;13.352;2022-09-04T06:05:42;22.48;;;20.63;;
41261;SDS011;29629;52.532;13.352;2022-09-04T06:08:22;23.75;;;21.55;;
41261;SDS011;29629;52.532;13.352;2022-09-04T06:11:00;25.45;;;23.20;;
41261;SDS011;29629;52.532;13.352;2022-09-04T06:13:51;24.42;;;21.92;;
41261;SDS011;29629;52.532;13.352;2022-09-04T06:16:35;26.15;;;23.65;;
41261;SDS011;29629;52.532;13.352;2022-09-04T06:19:40;28.88;;;26.08;;
41261;SDS011;29629;52.532;13.352;2022-09-04T06:25:17;27.48;;;24.88;;
41261;SDS011;29629;52.532;13.352;2022-09-04T06:28:05;27.27;;;24.55;;
41261;SDS011;29629;52.532;13.352;2022-09-04T06:30:56;26.48;;;24.42;;
41261;SDS011;29629;52.532;13.352;2022-09-04T06:33:31;25.02;;;22.60;;
41261;SDS011;29629;52.532;13.352;2022-09-04T06:39:15;29.80;;;27.30;;
41261;SDS011;29629;52.532;13.352;2022-09-04T06:42:06;25.70;;;23.55;;
41261;SDS011;29629;52.532;13.352;2022-09-04T06:44:48;27.30;;;24.92;;
41261;SDS011;29629;52.532;13.352;2022-09-04T06:47:33;28.58;;;26.13;;
41261;SDS011;29629;52.532;13.352;2022-09-04T06:50:12;27.95;;;26.23;;
41261;SDS011;29629;52.532;13.352;2022-09-04T06:52:47;30.08;;;27.20;;
41261;SDS011;29629;52.532;13.352;2022-09-04T06:55:27;30.52;;;27.65;;
41261;SDS011;29629;52.532;13.352;2022-09-04T06:58:03;31.50;;;28.80;;
41261;SDS011;29629;52.532;13.352;2022-09-04T07:00:41;33.58;;;30.67;;
41261;SDS011;29629;52.532;13.352;2022-09-04T07:03:25;33.13;;;30.52;;
41261;SDS011;29629;52.532;13.352;2022-09-04T07:06:01;33.13;;;30.40;;
41261;SDS011;29629;52.532;13.352;2022-09-04T07:08:38;32.95;;;30.00;;
41261;SDS011;29629;52.532;13.352;2022-09-04T07:11:23;33.87;;;30.83;;
41261;SDS011;29629;52.532;13.352;2022-09-04T07:14:13;32.38;;;30.08;;
41261;SDS011;29629;52.532;13.352;2022-09-04T07:16:53;36.17;;;33.63;;
41261;SDS011;29629;52.532;13.352;2022-09-04T07:19:41;37.00;;;34.45;;
41261;SDS011;29629;52.532;13.352;2022-09-04T07:22:26;37.20;;;34.50;;
41261;SDS011;29629;52.532;13.352;2022-09-04T07:25:11;38.22;;;35.67;;
41261;SDS011;29629;52.532;13.352;2022-09-04T07:30:43;39.10;;;35.45;;
41261;SDS011;29629;52.532;13.352;2022-09-04T07:33:17;37.10;;;34.65;;
41261;SDS011;29629;52.532;13.352;2022-09-04T07:35:55;36.28;;;33.50;;
41261;SDS011;29629;52.532;13.352;2022-09-04T07:38:33;38.90;;;35.97;;
41261;SDS011;29629;52.532;13.352;2022-09-04T07:41:06;38.17;;;35.63;;
41261;SDS011;29629;52.532;13.352;2022-09-04T07:43:41;37.22;;;34.92;;
41261;SDS011;29629;52.532;13.352;2022-09-04T07:46:13;39.83;;;36.95;;
41261;SDS011;29629;52.532;13.352;2022-09-04T07:48:45;42.08;;;38.58;;
41261;SDS011;29629;52.532;13.352;2022-09-04T07:51:19;39.05;;;36.72;;
41261;SDS011;29629;52.532;13.352;2022-09-04T07:57:23;40.50;;;37.47;;
41261;SDS011;29629;52.532;13.352;2022-09-04T08:00:11;41.92;;;38.85;;
41261;SDS011;29629;52.532;13.352;2022-09-04T08:05:46;44.47;;;41.67;;
41261;SDS011;29629;52.532;13.352;2022-09-04T08:08:36;43.15;;;40.20;;
41261;SDS011;29629;52.532;13.352;2022-09-04T08:11:21;39.05;;;35.92;;
41261;SDS011;29629;52.532;13.352;2022-09-04T08:14:06;37.83;;;35.72;;
41261;SDS011;29629;52.532;13.352;2022-09-04T08:16:53;55.03;;;38.90;;
41261;SDS011;29629;52.532;13.352;2022-09-04T08:19:49;39.95;;;35.97;;
41261;SDS011;29629;52.532;13.352;2022-09-04T08:22:28;36.72;;;33.40;;
41261;SDS011;29629;52.532;13.352;2022-09-04T08:25:14;35.63;;;32.42;;
41261;SDS011;29629;52.532;13.352;2022-09-04T08:30:48;31.17;;;26.17;;
41261;SDS011;29629;52.532;13.352;2022-09-04T08:33:25;24.23;;;21.85;;
41261;SDS011;29629;52.532;13.352;2022-09-04T08:36:00;22.15;;;18.23;;
41261;SDS011;29629;52.532;13.352;2022-09-04T08:38:37;22.15;;;18.48;;
41261;SDS011;29629;52.532;13.352;2022-09-04T08:44:23;27.58;;;25.10;;
41261;SDS011;29629;52.532;13.352;2022-09-04T08:47:18;13.95;;;10.90;;
41261;SDS011;29629;52.532;13.352;2022-09-04T08:50:16;14.70;;;6.07;;
41261;SDS011;29629;52.532;13.352;2022-09-04T08:56:16;12.32;;;4.60;;
41261;SDS011;29629;52.532;13.352;2022-09-04T09:02:03;16.45;;;5.97;;
41261;SDS011;29629;52.532;13.352;2022-09-04T09:08:05;13.52;;;5.82;;
41261;SDS011;29629;52.532;13.352;2022-09-04T09:10:54;16.40;;;7.07;;
41261;SDS011;29629;52.532;13.352;2022-09-04T09:16:42;10.38;;;7.47;;
41261;SDS011;29629;52.532;13.352;2022-09-04T09:19:19;12.30;;;7.75;;
41261;SDS011;29629;52.532;13.352;2022-09-04T09:22:07;11.70;;;7.18;;
41261;SDS011;29629;52.532;13.352;2022-09-04T09:30:32;10.63;;;7.75;;
41261;SDS011;29629;52.532;13.352;2022-09-04T09:36:29;14.52;;;8.15;;
41261;SDS011;29629;52.532;13.352;2022-09-04T09:39:20;12.55;;;8.18;;
41261;SDS011;29629;52.532;13.352;2022-09-04T09:45:13;12.52;;;8.77;;
41261;SDS011;29629;52.532;13.352;2022-09-04T09:51:21;14.32;;;9.73;;
41261;SDS011;29629;52.532;13.352;2022-09-04T09:54:23;15.00;;;10.38;;
41261;SDS011;29629;52.532;13.352;2022-09-04T10:00:21;16.23;;;9.93;;
41261;SDS011;29629;52.532;13.352;2022-09-04T10:19:03;18.80;;;10.60;;
41261;SDS011;29629;52.532;13.352;2022-09-04T10:24:43;27.15;;;12.27;;
41261;SDS011;29629;52.532;13.352;2022-09-04T10:30:55;15.07;;;10.75;;
41261;SDS011;29629;52.532;13.352;2022-09-04T10:33:44;11.50;;;10.27;;
41261;SDS011;29629;52.532;13.352;2022-09-04T10:36:28;13.55;;;9.57;;
41261;SDS011;29629;52.532;13.352;2022-09-04T10:39:08;12.13;;;9.55;;
41261;SDS011;29629;52.532;13.352;2022-09-04T10:42:05;14.50;;;10.07;;
41261;SDS011;29629;52.532;13.352;2022-09-04T10:44:51;18.80;;;10.23;;
41261;SDS011;29629;52.532;13.352;2022-09-04T10:47:42;12.00;;;8.63;;
41261;SDS011;29629;52.532;13.352;2022-09-04T10:50:30;15.77;;;9.60;;
41261;SDS011;29629;52.532;13.352;2022-09-04T10:53:13;15.38;;;9.27;;
41261;SDS011;29629;52.532;13.352;2022-09-04T10:56:04;12.50;;;9.02;;
41261;SDS011;29629;52.532;13.352;2022-09-04T11:01:40;11.68;;;7.85;;
41261;SDS011;29629;52.532;13.352;2022-09-04T11:04:35;17.02;;;8.70;;
41261;SDS011;29629;52.532;13.352;2022-09-04T11:07:33;13.15;;;8.75;;
41261;SDS011;29629;52.532;13.352;2022-09-04T11:10:37;13.10;;;8.55;;
41261;SDS011;29629;52.532;13.352;2022-09-04T11:13:33;13.13;;;9.38;;
41261;SDS011;29629;52.532;13.352;2022-09-04T11:16:31;11.88;;;9.07;;
41261;SDS011;29629;52.532;13.352;2022-09-04T11:19:29;11.85;;;9.40;;
41261;SDS011;29629;52.532;13.352;2022-09-04T11:25:29;13.27;;;10.10;;
41261;SDS011;29629;52.532;13.352;2022-09-04T11:28:36;12.65;;;9.63;;
41261;SDS011;29629;52.532;13.352;2022-09-04T11:31:23;10.68;;;9.57;;
41261;SDS011;29629;52.532;13.352;2022-09-04T11:34:05;15.55;;;9.95;;
41261;SDS011;29629;52.532;13.352;2022-09-04T11:46:35;12.70;;;9.25;;
41261;SDS011;29629;52.532;13.352;2022-09-04T11:52:14;11.30;;;9.25;;
41261;SDS011;29629;52.532;13.352;2022-09-04T11:58:08;15.77;;;10.20;;
41261;SDS011;29629;52.532;13.352;2022-09-04T12:00:58;14.65;;;10.20;;
41261;SDS011;29629;52.532;13.352;2022-09-04T12:06:36;12.85;;;8.80;;
41261;SDS011;29629;52.532;13.352;2022-09-04T12:17:56;11.20;;;8.93;;
41261;SDS011;29629;52.532;13.352;2022-09-04T12:20:45;16.15;;;8.90;;
41261;SDS011;29629;52.532;13.352;2022-09-04T12:23:38;15.23;;;8.43;;
41261;SDS011;29629;52.532;13.352;2022-09-04T12:29:27;12.98;;;8.98;;
41261;SDS011;29629;52.532;13.352;2022-09-04T12:32:22;15.80;;;9.02;;
41261;SDS011;29629;52.532;13.352;2022-09-04T12:35:28;13.55;;;7.70;;
41261;SDS011;29629;52.532;13.352;2022-09-04T12:38:21;12.98;;;8.50;;
41261;SDS011;29629;52.532;13.352;2022-09-04T12:41:02;13.45;;;8.73;;
41261;SDS011;29629;52.532;13.352;2022-09-04T12:43:41;11.30;;;7.50;;
41261;SDS011;29629;52.532;13.352;2022-09-04T12:46:22;10.05;;;7.47;;
41261;SDS011;29629;52.532;13.352;2022-09-04T12:49:02;12.65;;;8.32;;
41261;SDS011;29629;52.532;13.352;2022-09-04T12:51:41;11.95;;;8.48;;
41261;SDS011;29629;52.532;13.352;2022-09-04T12:54:19;9.27;;;8.40;;
41261;SDS011;29629;52.532;13.352;2022-09-04T12:57:05;15.70;;;9.68;;
41261;SDS011;29629;52.532;13.352;2022-09-04T12:59:45;12.23;;;8.73;;
41261;SDS011;29629;52.532;13.352;2022-09-04T13:02:24;11.40;;;9.48;;
41261;SDS011;29629;52.532;13.352;2022-09-04T13:05:00;11.65;;;8.55;;
41261;SDS011;29629;52.532;13.352;2022-09-04T13:07:39;14.45;;;8.82;;
41261;SDS011;29629;52.532;13.352;2022-09-04T13:10:21;12.40;;;8.35;;
41261;SDS011;29629;52.532;13.352;2022-09-04T13:13:00;14.13;;;8.77;;
41261;SDS011;29629;52.532;13.352;2022-09-04T13:15:36;11.30;;;8.57;;
41261;SDS011;29629;52.532;13.352;2022-09-04T13:18:21;12.52;;;8.23;;
41261;SDS011;29629;52.532;13.352;2022-09-04T13:21:00;14.50;;;8.63;;
41261;SDS011;29629;52.532;13.352;2022-09-04T13:23:37;13.48;;;8.50;;
41261;SDS011;29629;52.532;13.352;2022-09-04T13:26:21;12.88;;;8.38;;
41261;SDS011;29629;52.532;13.352;2022-09-04T13:29:03;10.93;;;8.30;;
41261;SDS011;29629;52.532;13.352;2022-09-04T13:31:44;13.77;;;8.63;;
41261;SDS011;29629;52.532;13.352;2022-09-04T13:34:21;9.82;;;7.72;;
41261;SDS011;29629;52.532;13.352;2022-09-04T13:37:00;13.82;;;8.38;;
41261;SDS011;29629;52.532;13.352;2022-09-04T13:45:42;16.60;;;7.25;;
41261;SDS011;29629;52.532;13.352;2022-09-04T13:48:13;9.75;;;5.97;;
41261;SDS011;29629;52.532;13.352;2022-09-04T13:50:56;16.17;;;6.68;;
41261;SDS011;29629;52.532;13.352;2022-09-04T13:53:29;12.10;;;6.40;;
41261;SDS011;29629;52.532;13.352;2022-09-04T13:56:02;12.88;;;6.40;;
41261;SDS011;29629;52.532;13.352;2022-09-04T13:58:36;8.40;;;5.65;;
41261;SDS011;29629;52.532;13.352;2022-09-04T14:01:07;18.73;;;6.25;;
41261;SDS011;29629;52.532;13.352;2022-09-04T14:03:40;13.45;;;5.30;;
41261;SDS011;29629;52.532;13.352;2022-09-04T14:06:12;12.05;;;5.20;;
41261;SDS011;29629;52.532;13.352;2022-09-04T14:08:41;13.07;;;4.45;;
41261;SDS011;29629;52.532;13.352;2022-09-04T14:11:22;8.77;;;3.53;;
41261;SDS011;29629;52.532;13.352;2022-09-04T14:14:32;11.95;;;4.32;;
41261;SDS011;29629;52.532;13.352;2022-09-04T14:17:12;7.75;;;3.25;;
41261;SDS011;29629;52.532;13.352;2022-09-04T14:19:48;12.73;;;3.78;;
41261;SDS011;29629;52.532;13.352;2022-09-04T14:22:24;14.80;;;4.18;;
41261;SDS011;29629;52.532;13.352;2022-09-04T14:25:02;18.33;;;4.45;;
41261;SDS011;29629;52.532;13.352;2022-09-04T14:27:36;13.65;;;3.83;;
41261;SDS011;29629;52.532;13.352;2022-09-04T14:30:12;11.48;;;3.72;;
41261;SDS011;29629;52.532;13.352;2022-09-04T14:32:43;14.68;;;3.67;;
41261;SDS011;29629;52.532;13.352;2022-09-04T14:35:28;12.60;;;5.30;;
41261;SDS011;29629;52.532;13.352;2022-09-04T14:38:11;11.55;;;3.88;;
41261;SDS011;29629;52.532;13.352;2022-09-04T14:40:53;14.70;;;3.67;;
41261;SDS011;29629;52.532;13.352;2022-09-04T14:43:26;21.10;;;19.33;;
41261;SDS011;29629;52.532;13.352;2022-09-04T14:46:08;13.60;;;4.63;;
41261;SDS011;29629;52.532;13.352;2022-09-04T14:48:45;16.38;;;4.80;;
41261;SDS011;29629;52.532;13.352;2022-09-04T14:51:16;12.63;;;4.45;;
41261;SDS011;29629;52.532;13.352;2022-09-04T14:53:58;11.75;;;4.65;;
41261;SDS011;29629;52.532;13.352;2022-09-04T14:56:27;11.80;;;6.45;;
41261;SDS011;29629;52.532;13.352;2022-09-04T14:59:05;21.67;;;14.32;;
41261;SDS011;29629;52.532;13.352;2022-09-04T15:04:44;21.00;;;14.48;;
41261;SDS011;29629;52.532;13.352;2022-09-04T15:10:21;20.25;;;18.13;;
41261;SDS011;29629;52.532;13.352;2022-09-04T15:12:52;26.27;;;23.85;;
41261;SDS011;29629;52.532;13.352;2022-09-04T15:15:26;40.30;;;38.33;;
41261;SDS011;29629;52.532;13.352;2022-09-04T15:17:58;87.78;;;55.10;;
41261;SDS011;29629;52.532;13.352;2022-09-04T15:20:33;48.30;;;44.10;;
41261;SDS011;29629;52.532;13.352;2022-09-04T15:23:04;46.83;;;43.25;;
41261;SDS011;29629;52.532;13.352;2022-09-04T15:25:42;43.42;;;40.30;;
41261;SDS011;29629;52.532;13.352;2022-09-04T15:28:15;42.17;;;39.80;;
41261;SDS011;29629;52.532;13.352;2022-09-04T15:30:57;43.88;;;40.20;;
41261;SDS011;29629;52.532;13.352;2022-09-04T15:33:30;45.97;;;42.63;;
41261;SDS011;29629;52.532;13.352;2022-09-04T15:36:02;52.85;;;49.15;;
41261;SDS011;29629;52.532;13.352;2022-09-04T15:38:34;49.40;;;45.90;;
41261;SDS011;29629;52.532;13.352;2022-09-04T15:41:03;52.38;;;48.58;;
41261;SDS011;29629;52.532;13.352;2022-09-04T15:43:45;52.72;;;49.55;;
41261;SDS011;29629;52.532;13.352;2022-09-04T15:46:17;58.42;;;54.63;;
41261;SDS011;29629;52.532;13.352;2022-09-04T15:48:54;61.67;;;56.15;;
41261;SDS011;29629;52.532;13.352;2022-09-04T15:51:35;54.90;;;51.33;;
41261;SDS011;29629;52.532;13.352;2022-09-04T15:54:10;52.80;;;48.80;;
41261;SDS011;29629;52.532;13.352;2022-09-04T15:56:52;50.28;;;47.13;;
41261;SDS011;29629;52.532;13.352;2022-09-04T15:59:33;52.92;;;49.58;;
41261;SDS011;29629;52.532;13.352;2022-09-04T16:02:09;56.10;;;52.75;;
41261;SDS011;29629;52.532;13.352;2022-09-04T16:04:45;54.70;;;49.95;;
41261;SDS011;29629;52.532;13.352;2022-09-04T16:07:28;55.92;;;52.08;;
41261;SDS011;29629;52.532;13.352;2022-09-04T16:10:07;50.90;;;46.83;;
41261;SDS011;29629;52.532;13.352;2022-09-04T16:12:39;50.70;;;47.22;;
41261;SDS011;29629;52.532;13.352;2022-09-04T16:15:15;51.25;;;48.05;;
41261;SDS011;29629;52.532;13.352;2022-09-04T16:17:47;55.78;;;52.58;;
41261;SDS011;29629;52.532;13.352;2022-09-04T16:20:25;55.58;;;52.10;;
41261;SDS011;29629;52.532;13.352;2022-09-04T16:22:58;54.88;;;50.33;;
41261;SDS011;29629;52.532;13.352;2022-09-04T16:25:28;51.92;;;48.42;;
41261;SDS011;29629;52.532;13.352;2022-09-04T16:27:59;51.22;;;48.13;;
41261;SDS011;29629;52.532;13.352;2022-09-04T16:30:31;55.42;;;51.67;;
41261;SDS011;29629;52.532;13.352;2022-09-04T16:33:02;57.63;;;53.20;;
41261;SDS011;29629;52.532;13.352;2022-09-04T16:35:32;54.80;;;51.20;;
41261;SDS011;29629;52.532;13.352;2022-09-04T16:38:07;53.80;;;49.83;;
41261;SDS011;29629;52.532;13.352;2022-09-04T16:40:39;50.58;;;47.35;;
41261;SDS011;29629;52.532;13.352;2022-09-04T16:43:17;63.17;;;52.47;;
41261;SDS011;29629;52.532;13.352;2022-09-04T16:45:49;53.80;;;50.28;;
41261;SDS011;29629;52.532;13.352;2022-09-04T16:48:21;52.92;;;49.58;;
41261;SDS011;29629;52.532;13.352;2022-09-04T16:50:57;56.38;;;51.80;;
41261;SDS011;29629;52.532;13.352;2022-09-04T16:53:31;52.33;;;47.97;;
41261;SDS011;29629;52.532;13.352;2022-09-04T16:56:04;53.22;;;49.42;;
41261;SDS011;29629;52.532;13.352;2022-09-04T16:58:44;53.63;;;49.28;;
41261;SDS011;29629;52.532;13.352;2022-09-04T17:06:59;56.17;;;51.05;;
41261;SDS011;29629;52.532;13.352;2022-09-04T17:09:30;45.03;;;42.65;;
41261;SDS011;29629;52.532;13.352;2022-09-04T17:12:13;52.40;;;48.80;;
41261;SDS011;29629;52.532;13.352;2022-09-04T17:14:48;46.83;;;43.83;;
41261;SDS011;29629;52.532;13.352;2022-09-04T17:17:21;46.65;;;43.22;;
41261;SDS011;29629;52.532;13.352;2022-09-04T17:19:58;46.22;;;42.67;;
41261;SDS011;29629;52.532;13.352;2022-09-04T17:22:34;46.67;;;43.05;;
41261;SDS011;29629;52.532;13.352;2022-09-04T17:25:14;44.60;;;41.20;;
41261;SDS011;29629;52.532;13.352;2022-09-04T17:27:48;42.40;;;38.97;;
41261;SDS011;29629;52.532;13.352;2022-09-04T17:30:32;42.85;;;39.42;;
41261;SDS011;29629;52.532;13.352;2022-09-04T17:33:06;45.67;;;41.75;;
41261;SDS011;29629;52.532;13.352;2022-09-04T17:35:42;43.22;;;39.92;;
41261;SDS011;29629;52.532;13.352;2022-09-04T17:38:18;41.72;;;38.53;;
41261;SDS011;29629;52.532;13.352;2022-09-04T17:40:54;41.90;;;39.20;;
41261;SDS011;29629;52.532;13.352;2022-09-04T17:43:28;45.15;;;41.72;;
41261;SDS011;29629;52.532;13.352;2022-09-04T17:46:09;43.72;;;40.10;;
41261;SDS011;29629;52.532;13.352;2022-09-04T17:48:51;43.97;;;40.70;;
41261;SDS011;29629;52.532;13.352;2022-09-04T17:51:20;43.30;;;39.78;;
41261;SDS011;29629;52.532;13.352;2022-09-04T17:53:51;42.47;;;38.70;;
41261;SDS011;29629;52.532;13.352;2022-09-04T17:56:23;40.63;;;37.55;;
41261;SDS011;29629;52.532;13.352;2022-09-04T17:58:53;40.53;;;37.92;;
41261;SDS011;29629;52.532;13.352;2022-09-04T18:01:27;37.65;;;35.38;;
41261;SDS011;29629;52.532;13.352;2022-09-04T18:04:09;40.22;;;37.33;;